sensor_id;sensor_type;location;lat;lon;timestamp;P1;P2;P0
74086;PMS7003;62445;48.406;-4.518;2023-04-24T00:00:15;4.25;4.25;3.25
74086;PMS7003;62445;48.406;-4.518;2023-04-24T00:02:41;4.25;4.00;3.25
74086;PMS7003;62445;48.406;-4.518;2023-04-24T00:05:11;6.75;5.50;4.50
74086;PMS7003;62445;48.406;-4.518;2023-04-24T00:07:40;4.50;4.50;4.00
74086;PMS7003;62445;48.406;-4.518;2023-04-24T00:10:07;5.75;4.00;4.00
74086;PMS7003;62445;48.406;-4.518;2023-04-24T00:12:33;6.00;4.25;4.00
74086;PMS7003;62445;48.406;-4.518;2023-04-24T00:14:58;4.50;4.00;4.00
74086;PMS7003;62445;48.406;-4.518;2023-04-24T00:17:24;5.50;5.50;4.00
74086;PMS7003;62445;48.406;-4.518;2023-04-24T00:19:49;5.00;4.25;4.00
74086;PMS7003;62445;48.406;-4.518;2023-04-24T00:22:16;5.75;5.75;4.25
74086;PMS7003;62445;48.406;-4.518;2023-04-24T00:24:45;3.25;3.25;3.00
74086;PMS7003;62445;48.406;-4.518;2023-04-24T00:27:10;3.50;3.50;2.75
74086;PMS7003;62445;48.406;-4.518;2023-04-24T00:29:36;5.00;5.00;4.00
74086;PMS7003;62445;48.406;-4.518;2023-04-24T00:32:01;3.00;3.00;3.00
74086;PMS7003;62445;48.406;-4.518;2023-04-24T00:34:27;4.00;4.00;4.00
74086;PMS7003;62445;48.406;-4.518;2023-04-24T00:36:52;6.25;4.50;4.00
74086;PMS7003;62445;48.406;-4.518;2023-04-24T00:39:18;4.00;4.00;4.00
74086;PMS7003;62445;48.406;-4.518;2023-04-24T00:41:44;3.00;3.00;2.25
74086;PMS7003;62445;48.406;-4.518;2023-04-24T00:44:10;3.25;3.25;3.25
74086;PMS7003;62445;48.406;-4.518;2023-04-24T00:46:36;5.00;5.00;4.25
74086;PMS7003;62445;48.406;-4.518;2023-04-24T00:49:02;4.00;2.75;2.00
74086;PMS7003;62445;48.406;-4.518;2023-04-24T00:51:27;3.50;2.75;2.50
74086;PMS7003;62445;48.406;-4.518;2023-04-24T00:53:53;5.75;4.50;4.00
74086;PMS7003;62445;48.406;-4.518;2023-04-24T00:56:18;5.00;5.00;3.75
74086;PMS7003;62445;48.406;-4.518;2023-04-24T00:58:44;4.00;3.25;3.00
74086;PMS7003;62445;48.406;-4.518;2023-04-24T01:01:10;4.50;4.50;3.25
74086;PMS7003;62445;48.406;-4.518;2023-04-24T01:03:36;3.50;3.50;3.00
74086;PMS7003;62445;48.406;-4.518;2023-04-24T01:06:02;3.25;3.25;2.50
74086;PMS7003;62445;48.406;-4.518;2023-04-24T01:08:28;3.50;3.25;2.25
74086;PMS7003;62445;48.406;-4.518;2023-04-24T01:10:54;4.00;4.00;3.00
74086;PMS7003;62445;48.406;-4.518;2023-04-24T01:13:21;2.75;2.75;2.50
74086;PMS7003;62445;48.406;-4.518;2023-04-24T01:15:47;4.50;4.50;4.00
74086;PMS7003;62445;48.406;-4.518;2023-04-24T01:18:13;4.00;4.00;3.25
74086;PMS7003;62445;48.406;-4.518;2023-04-24T01:20:40;5.00;3.75;3.50
74086;PMS7003;62445;48.406;-4.518;2023-04-24T01:23:07;4.00;3.50;3.00
74086;PMS7003;62445;48.406;-4.518;2023-04-24T01:25:33;3.00;3.00;2.25
74086;PMS7003;62445;48.406;-4.518;2023-04-24T01:27:59;4.75;4.00;3.75
74086;PMS7003;62445;48.406;-4.518;2023-04-24T01:30:26;5.50;5.25;4.00
74086;PMS7003;62445;48.406;-4.518;2023-04-24T01:32:52;3.25;3.25;3.00
74086;PMS7003;62445;48.406;-4.518;2023-04-24T01:35:18;3.75;2.50;2.00
74086;PMS7003;62445;48.406;-4.518;2023-04-24T01:37:44;4.50;4.50;4.00
74086;PMS7003;62445;48.406;-4.518;2023-04-24T01:40:10;5.00;4.00;3.00
74086;PMS7003;62445;48.406;-4.518;2023-04-24T01:42:35;3.00;2.75;2.75
74086;PMS7003;62445;48.406;-4.518;2023-04-24T01:45:02;4.00;4.00;3.00
74086;PMS7003;62445;48.406;-4.518;2023-04-24T01:47:29;3.00;3.00;3.00
74086;PMS7003;62445;48.406;-4.518;2023-04-24T01:49:55;4.00;3.75;3.00
74086;PMS7003;62445;48.406;-4.518;2023-04-24T01:52:21;5.00;3.00;3.00
74086;PMS7003;62445;48.406;-4.518;2023-04-24T01:54:46;3.00;3.00;2.00
74086;PMS7003;62445;48.406;-4.518;2023-04-24T01:57:13;4.75;4.75;3.25
74086;PMS7003;62445;48.406;-4.518;2023-04-24T01:59:39;3.50;3.50;2.75
74086;PMS7003;62445;48.406;-4.518;2023-04-24T02:02:05;2.50;2.50;2.00
74086;PMS7003;62445;48.406;-4.518;2023-04-24T02:04:30;3.25;3.00;2.00
74086;PMS7003;62445;48.406;-4.518;2023-04-24T02:06:56;4.50;4.00;3.50
74086;PMS7003;62445;48.406;-4.518;2023-04-24T02:09:22;3.00;2.00;2.00
74086;PMS7003;62445;48.406;-4.518;2023-04-24T02:11:47;3.00;3.00;3.00
74086;PMS7003;62445;48.406;-4.518;2023-04-24T02:14:12;4.75;4.25;3.00
74086;PMS7003;62445;48.406;-4.518;2023-04-24T02:16:38;5.00;4.00;3.75
74086;PMS7003;62445;48.406;-4.518;2023-04-24T02:19:04;2.50;2.00;1.75
74086;PMS7003;62445;48.406;-4.518;2023-04-24T02:21:29;4.25;3.25;2.75
74086;PMS7003;62445;48.406;-4.518;2023-04-24T02:23:56;2.50;2.50;2.00
74086;PMS7003;62445;48.406;-4.518;2023-04-24T02:26:21;4.00;4.00;3.00
74086;PMS7003;62445;48.406;-4.518;2023-04-24T02:28:47;3.00;2.25;1.75
74086;PMS7003;62445;48.406;-4.518;2023-04-24T02:31:12;3.00;3.00;3.00
74086;PMS7003;62445;48.406;-4.518;2023-04-24T02:33:37;3.50;3.50;3.00
74086;PMS7003;62445;48.406;-4.518;2023-04-24T02:36:03;4.00;4.00;3.00
74086;PMS7003;62445;48.406;-4.518;2023-04-24T02:38:28;3.00;3.00;3.00
74086;PMS7003;62445;48.406;-4.518;2023-04-24T02:40:54;4.00;3.75;3.25
74086;PMS7003;62445;48.406;-4.518;2023-04-24T02:43:20;3.75;3.75;3.00
74086;PMS7003;62445;48.406;-4.518;2023-04-24T02:45:45;4.00;4.00;3.00
74086;PMS7003;62445;48.406;-4.518;2023-04-24T02:48:11;3.75;3.75;3.00
74086;PMS7003;62445;48.406;-4.518;2023-04-24T02:50:36;3.00;3.00;2.00
74086;PMS7003;62445;48.406;-4.518;2023-04-24T02:53:02;3.00;2.50;2.50
74086;PMS7003;62445;48.406;-4.518;2023-04-24T02:55:27;3.00;1.00;1.00
74086;PMS7003;62445;48.406;-4.518;2023-04-24T02:57:53;5.00;3.50;2.50
74086;PMS7003;62445;48.406;-4.518;2023-04-24T03:00:18;3.00;3.00;3.00
74086;PMS7003;62445;48.406;-4.518;2023-04-24T03:02:45;4.00;4.00;3.00
74086;PMS7003;62445;48.406;-4.518;2023-04-24T03:05:11;1.75;1.75;1.25
74086;PMS7003;62445;48.406;-4.518;2023-04-24T03:07:37;3.50;2.75;2.25
74086;PMS7003;62445;48.406;-4.518;2023-04-24T03:10:03;2.50;2.50;2.00
74086;PMS7003;62445;48.406;-4.518;2023-04-24T03:12:30;3.00;3.00;2.75
74086;PMS7003;62445;48.406;-4.518;2023-04-24T03:14:56;3.50;3.50;3.00
74086;PMS7003;62445;48.406;-4.518;2023-04-24T03:17:21;3.00;3.00;3.00
74086;PMS7003;62445;48.406;-4.518;2023-04-24T03:19:47;2.75;2.75;2.25
74086;PMS7003;62445;48.406;-4.518;2023-04-24T03:22:12;3.00;3.00;3.00
74086;PMS7003;62445;48.406;-4.518;2023-04-24T03:24:37;3.75;3.75;3.00
74086;PMS7003;62445;48.406;-4.518;2023-04-24T03:27:03;4.75;3.00;2.50
74086;PMS7003;62445;48.406;-4.518;2023-04-24T03:29:28;2.50;2.50;2.25
74086;PMS7003;62445;48.406;-4.518;2023-04-24T03:31:54;3.75;3.75;3.00
74086;PMS7003;62445;48.406;-4.518;2023-04-24T03:34:19;2.75;2.75;2.50
74086;PMS7003;62445;48.406;-4.518;2023-04-24T03:36:44;3.25;2.25;2.25
74086;PMS7003;62445;48.406;-4.518;2023-04-24T03:39:12;2.75;2.00;2.00
74086;PMS7003;62445;48.406;-4.518;2023-04-24T03:41:38;2.00;2.00;1.75
74086;PMS7003;62445;48.406;-4.518;2023-04-24T03:44:03;3.00;3.00;2.50
74086;PMS7003;62445;48.406;-4.518;2023-04-24T03:46:29;5.25;4.25;3.50
74086;PMS7003;62445;48.406;-4.518;2023-04-24T03:48:54;2.00;2.00;2.00
74086;PMS7003;62445;48.406;-4.518;2023-04-24T03:51:20;3.00;3.00;3.00
74086;PMS7003;62445;48.406;-4.518;2023-04-24T03:53:45;4.00;3.00;3.00
74086;PMS7003;62445;48.406;-4.518;2023-04-24T03:56:11;3.00;2.50;2.00
74086;PMS7003;62445;48.406;-4.518;2023-04-24T03:58:36;3.25;3.25;3.00
74086;PMS7003;62445;48.406;-4.518;2023-04-24T04:01:02;3.50;3.50;3.00
74086;PMS7003;62445;48.406;-4.518;2023-04-24T04:03:27;2.75;2.00;1.75
74086;PMS7003;62445;48.406;-4.518;2023-04-24T04:05:53;2.00;2.00;2.00
74086;PMS7003;62445;48.406;-4.518;2023-04-24T04:08:19;3.00;3.00;2.25
74086;PMS7003;62445;48.406;-4.518;2023-04-24T04:10:44;2.25;2.25;2.25
74086;PMS7003;62445;48.406;-4.518;2023-04-24T04:13:10;3.50;3.50;2.50
74086;PMS7003;62445;48.406;-4.518;2023-04-24T04:15:35;2.00;2.00;1.25
74086;PMS7003;62445;48.406;-4.518;2023-04-24T04:18:01;3.75;3.75;2.75
74086;PMS7003;62445;48.406;-4.518;2023-04-24T04:20:26;4.25;3.00;3.00
74086;PMS7003;62445;48.406;-4.518;2023-04-24T04:22:51;3.50;2.00;2.00
74086;PMS7003;62445;48.406;-4.518;2023-04-24T04:25:17;4.00;3.00;3.00
74086;PMS7003;62445;48.406;-4.518;2023-04-24T04:27:44;3.00;3.00;2.75
74086;PMS7003;62445;48.406;-4.518;2023-04-24T04:30:12;3.00;3.00;2.50
74086;PMS7003;62445;48.406;-4.518;2023-04-24T04:32:38;2.00;2.00;2.00
74086;PMS7003;62445;48.406;-4.518;2023-04-24T04:35:04;3.00;3.00;2.50
74086;PMS7003;62445;48.406;-4.518;2023-04-24T04:37:30;1.75;1.75;1.75
74086;PMS7003;62445;48.406;-4.518;2023-04-24T04:39:56;3.00;3.00;2.50
74086;PMS7003;62445;48.406;-4.518;2023-04-24T04:42:23;4.00;3.00;3.00
74086;PMS7003;62445;48.406;-4.518;2023-04-24T04:44:49;4.25;2.00;2.00
74086;PMS7003;62445;48.406;-4.518;2023-04-24T04:47:15;4.00;2.00;2.00
74086;PMS7003;62445;48.406;-4.518;2023-04-24T04:49:42;3.00;2.25;2.25
74086;PMS7003;62445;48.406;-4.518;2023-04-24T04:52:08;3.75;3.50;3.00
74086;PMS7003;62445;48.406;-4.518;2023-04-24T04:54:33;4.25;4.25;3.75
74086;PMS7003;62445;48.406;-4.518;2023-04-24T04:56:59;3.00;3.00;2.00
74086;PMS7003;62445;48.406;-4.518;2023-04-24T04:59:25;3.25;3.25;2.25
74086;PMS7003;62445;48.406;-4.518;2023-04-24T05:01:51;4.00;3.00;2.75
74086;PMS7003;62445;48.406;-4.518;2023-04-24T05:04:17;2.00;2.00;2.00
74086;PMS7003;62445;48.406;-4.518;2023-04-24T05:06:42;2.00;2.00;1.50
74086;PMS7003;62445;48.406;-4.518;2023-04-24T05:09:08;3.00;3.00;2.50
74086;PMS7003;62445;48.406;-4.518;2023-04-24T05:11:33;2.25;2.25;2.00
74086;PMS7003;62445;48.406;-4.518;2023-04-24T05:13:58;3.25;3.00;2.00
74086;PMS7003;62445;48.406;-4.518;2023-04-24T05:16:24;3.50;3.50;3.00
74086;PMS7003;62445;48.406;-4.518;2023-04-24T05:18:49;5.50;4.50;4.00
74086;PMS7003;62445;48.406;-4.518;2023-04-24T05:21:15;3.00;3.00;2.25
74086;PMS7003;62445;48.406;-4.518;2023-04-24T05:23:41;4.00;4.00;3.75
74086;PMS7003;62445;48.406;-4.518;2023-04-24T05:26:06;5.00;5.00;5.00
74086;PMS7003;62445;48.406;-4.518;2023-04-24T05:28:32;6.50;6.50;5.75
74086;PMS7003;62445;48.406;-4.518;2023-04-24T05:30:57;6.50;6.50;6.00
74086;PMS7003;62445;48.406;-4.518;2023-04-24T05:33:24;7.00;7.00;6.50
74086;PMS7003;62445;48.406;-4.518;2023-04-24T05:35:50;9.75;8.25;7.00
74086;PMS7003;62445;48.406;-4.518;2023-04-24T05:38:15;7.75;6.25;6.00
74086;PMS7003;62445;48.406;-4.518;2023-04-24T05:40:44;7.25;7.25;6.25
74086;PMS7003;62445;48.406;-4.518;2023-04-24T05:43:10;9.50;7.75;6.25
74086;PMS7003;62445;48.406;-4.518;2023-04-24T05:45:36;7.50;7.50;6.50
74086;PMS7003;62445;48.406;-4.518;2023-04-24T05:48:02;8.75;7.75;6.00
74086;PMS7003;62445;48.406;-4.518;2023-04-24T05:50:28;7.75;7.75;5.75
74086;PMS7003;62445;48.406;-4.518;2023-04-24T05:52:53;6.50;6.50;6.00
74086;PMS7003;62445;48.406;-4.518;2023-04-24T05:55:19;9.00;7.75;7.00
74086;PMS7003;62445;48.406;-4.518;2023-04-24T05:57:44;8.50;8.50;7.25
74086;PMS7003;62445;48.406;-4.518;2023-04-24T06:00:10;8.25;7.50;6.25
74086;PMS7003;62445;48.406;-4.518;2023-04-24T06:02:38;7.25;7.25;6.00
74086;PMS7003;62445;48.406;-4.518;2023-04-24T06:05:04;7.25;7.25;6.25
74086;PMS7003;62445;48.406;-4.518;2023-04-24T06:07:29;5.00;5.00;4.25
74086;PMS7003;62445;48.406;-4.518;2023-04-24T06:09:55;7.25;6.00;6.00
74086;PMS7003;62445;48.406;-4.518;2023-04-24T06:12:21;6.50;5.00;4.75
74086;PMS7003;62445;48.406;-4.518;2023-04-24T06:14:47;6.50;6.25;5.50
74086;PMS7003;62445;48.406;-4.518;2023-04-24T06:17:13;6.00;6.00;6.00
74086;PMS7003;62445;48.406;-4.518;2023-04-24T06:19:38;6.25;6.25;5.00
74086;PMS7003;62445;48.406;-4.518;2023-04-24T06:22:03;4.00;4.00;4.00
74086;PMS7003;62445;48.406;-4.518;2023-04-24T06:24:29;5.25;4.00;4.00
74086;PMS7003;62445;48.406;-4.518;2023-04-24T06:26:55;4.25;4.25;4.00
74086;PMS7003;62445;48.406;-4.518;2023-04-24T06:29:22;4.25;4.25;4.00
74086;PMS7003;62445;48.406;-4.518;2023-04-24T06:31:47;5.25;5.25;5.00
74086;PMS7003;62445;48.406;-4.518;2023-04-24T06:34:13;5.00;5.00;5.00
74086;PMS7003;62445;48.406;-4.518;2023-04-24T06:36:38;5.00;5.00;4.00
74086;PMS7003;62445;48.406;-4.518;2023-04-24T06:39:04;5.00;4.75;4.25
74086;PMS7003;62445;48.406;-4.518;2023-04-24T06:41:29;5.00;4.00;3.25
74086;PMS7003;62445;48.406;-4.518;2023-04-24T06:43:55;3.75;3.25;3.00
74086;PMS7003;62445;48.406;-4.518;2023-04-24T06:46:21;6.75;5.00;4.50
74086;PMS7003;62445;48.406;-4.518;2023-04-24T06:48:51;4.00;4.00;3.75
74086;PMS7003;62445;48.406;-4.518;2023-04-24T06:51:20;5.25;4.25;4.00
74086;PMS7003;62445;48.406;-4.518;2023-04-24T06:53:47;4.50;4.50;3.50
74086;PMS7003;62445;48.406;-4.518;2023-04-24T06:56:12;3.00;3.00;3.00
74086;PMS7003;62445;48.406;-4.518;2023-04-24T06:58:38;6.50;4.50;3.75
74086;PMS7003;62445;48.406;-4.518;2023-04-24T07:01:03;5.25;3.50;3.25
74086;PMS7003;62445;48.406;-4.518;2023-04-24T07:03:28;3.00;3.00;3.00
74086;PMS7003;62445;48.406;-4.518;2023-04-24T07:05:54;2.00;2.00;2.00
74086;PMS7003;62445;48.406;-4.518;2023-04-24T07:08:20;5.00;5.00;4.00
74086;PMS7003;62445;48.406;-4.518;2023-04-24T07:10:46;4.75;4.25;3.00
74086;PMS7003;62445;48.406;-4.518;2023-04-24T07:13:12;4.75;2.25;2.25
74086;PMS7003;62445;48.406;-4.518;2023-04-24T07:15:37;4.00;2.25;2.25
74086;PMS7003;62445;48.406;-4.518;2023-04-24T07:18:03;3.00;3.00;2.75
74086;PMS7003;62445;48.406;-4.518;2023-04-24T07:20:29;5.25;3.25;2.25
74086;PMS7003;62445;48.406;-4.518;2023-04-24T07:22:54;4.00;4.00;3.25
74086;PMS7003;62445;48.406;-4.518;2023-04-24T07:25:20;4.25;4.25;4.00
74086;PMS7003;62445;48.406;-4.518;2023-04-24T07:27:45;3.00;3.00;2.25
74086;PMS7003;62445;48.406;-4.518;2023-04-24T07:30:11;4.00;4.00;4.00
74086;PMS7003;62445;48.406;-4.518;2023-04-24T07:32:36;4.75;4.75;3.50
74086;PMS7003;62445;48.406;-4.518;2023-04-24T07:35:02;3.00;3.00;2.50
74086;PMS7003;62445;48.406;-4.518;2023-04-24T07:37:28;4.00;3.25;3.00
74086;PMS7003;62445;48.406;-4.518;2023-04-24T07:39:54;3.25;3.25;3.00
74086;PMS7003;62445;48.406;-4.518;2023-04-24T07:42:20;4.00;4.00;3.50
74086;PMS7003;62445;48.406;-4.518;2023-04-24T07:44:45;5.25;3.25;2.50
74086;PMS7003;62445;48.406;-4.518;2023-04-24T07:47:12;4.25;3.50;2.00
74086;PMS7003;62445;48.406;-4.518;2023-04-24T07:49:40;2.50;2.50;2.25
74086;PMS7003;62445;48.406;-4.518;2023-04-24T07:52:06;4.00;3.25;3.00
74086;PMS7003;62445;48.406;-4.518;2023-04-24T07:54:31;5.50;4.25;3.25
74086;PMS7003;62445;48.406;-4.518;2023-04-24T07:56:57;4.50;4.50;4.00
74086;PMS7003;62445;48.406;-4.518;2023-04-24T07:59:22;5.00;2.75;2.00
74086;PMS7003;62445;48.406;-4.518;2023-04-24T08:01:48;3.00;3.00;2.50
74086;PMS7003;62445;48.406;-4.518;2023-04-24T08:04:14;4.25;3.00;2.50
74086;PMS7003;62445;48.406;-4.518;2023-04-24T08:06:39;3.00;3.00;3.00
74086;PMS7003;62445;48.406;-4.518;2023-04-24T08:09:05;4.75;3.00;2.50
74086;PMS7003;62445;48.406;-4.518;2023-04-24T08:11:31;2.00;2.00;2.00
74086;PMS7003;62445;48.406;-4.518;2023-04-24T08:13:57;3.25;3.25;2.25
74086;PMS7003;62445;48.406;-4.518;2023-04-24T08:16:22;3.50;3.50;3.00
74086;PMS7003;62445;48.406;-4.518;2023-04-24T08:18:48;3.00;3.00;2.00
74086;PMS7003;62445;48.406;-4.518;2023-04-24T08:21:15;3.00;3.00;2.25
74086;PMS7003;62445;48.406;-4.518;2023-04-24T08:23:42;3.00;3.00;2.50
74086;PMS7003;62445;48.406;-4.518;2023-04-24T08:26:08;3.00;3.00;2.50
74086;PMS7003;62445;48.406;-4.518;2023-04-24T08:28:33;2.75;2.75;2.25
74086;PMS7003;62445;48.406;-4.518;2023-04-24T08:30:59;3.50;3.50;2.75
74086;PMS7003;62445;48.406;-4.518;2023-04-24T08:33:24;3.50;3.50;3.00
74086;PMS7003;62445;48.406;-4.518;2023-04-24T08:35:50;4.00;2.75;2.00
74086;PMS7003;62445;48.406;-4.518;2023-04-24T08:38:16;4.75;2.50;2.25
74086;PMS7003;62445;48.406;-4.518;2023-04-24T08:40:42;2.75;2.75;2.00
74086;PMS7003;62445;48.406;-4.518;2023-04-24T08:43:08;3.25;3.25;2.50
74086;PMS7003;62445;48.406;-4.518;2023-04-24T08:45:35;3.75;3.00;3.00
74086;PMS7003;62445;48.406;-4.518;2023-04-24T08:48:01;3.00;3.00;2.75
74086;PMS7003;62445;48.406;-4.518;2023-04-24T08:50:29;2.25;2.25;2.00
74086;PMS7003;62445;48.406;-4.518;2023-04-24T08:52:56;2.75;2.75;2.50
74086;PMS7003;62445;48.406;-4.518;2023-04-24T08:55:22;2.75;2.75;2.75
74086;PMS7003;62445;48.406;-4.518;2023-04-24T08:57:50;4.00;3.00;2.00
74086;PMS7003;62445;48.406;-4.518;2023-04-24T09:00:21;2.00;2.00;2.00
74086;PMS7003;62445;48.406;-4.518;2023-04-24T09:02:47;2.75;2.00;2.00
74086;PMS7003;62445;48.406;-4.518;2023-04-24T09:05:16;4.75;4.00;3.00
74086;PMS7003;62445;48.406;-4.518;2023-04-24T09:07:44;2.00;2.00;2.00
74086;PMS7003;62445;48.406;-4.518;2023-04-24T09:10:14;2.00;2.00;2.00
74086;PMS7003;62445;48.406;-4.518;2023-04-24T09:12:40;4.00;4.00;3.00
74086;PMS7003;62445;48.406;-4.518;2023-04-24T09:15:07;2.00;2.00;1.75
74086;PMS7003;62445;48.406;-4.518;2023-04-24T09:17:33;2.75;2.00;1.75
74086;PMS7003;62445;48.406;-4.518;2023-04-24T09:20:00;2.75;2.75;2.00
74086;PMS7003;62445;48.406;-4.518;2023-04-24T09:22:28;3.00;3.00;2.75
74086;PMS7003;62445;48.406;-4.518;2023-04-24T09:25:05;2.75;2.75;2.00
74086;PMS7003;62445;48.406;-4.518;2023-04-24T09:27:32;2.75;2.50;1.25
74086;PMS7003;62445;48.406;-4.518;2023-04-24T09:29:59;3.00;3.00;2.75
74086;PMS7003;62445;48.406;-4.518;2023-04-24T09:32:25;5.75;1.75;1.75
74086;PMS7003;62445;48.406;-4.518;2023-04-24T09:35:10;3.50;2.00;1.50
74086;PMS7003;62445;48.406;-4.518;2023-04-24T09:37:41;3.75;3.00;3.00
74086;PMS7003;62445;48.406;-4.518;2023-04-24T09:42:43;2.75;2.00;2.00
74086;PMS7003;62445;48.406;-4.518;2023-04-24T09:45:11;3.00;2.00;2.00
74086;PMS7003;62445;48.406;-4.518;2023-04-24T09:47:38;2.00;2.00;2.00
74086;PMS7003;62445;48.406;-4.518;2023-04-24T09:50:14;2.25;2.00;1.00
74086;PMS7003;62445;48.406;-4.518;2023-04-24T09:53:15;3.50;3.00;2.00
74086;PMS7003;62445;48.406;-4.518;2023-04-24T09:55:38;5.00;3.25;2.25
74086;PMS7003;62445;48.406;-4.518;2023-04-24T09:58:09;2.50;2.50;2.00
74086;PMS7003;62445;48.406;-4.518;2023-04-24T10:00:35;2.25;2.25;2.00
74086;PMS7003;62445;48.406;-4.518;2023-04-24T10:03:01;2.00;2.00;1.00
74086;PMS7003;62445;48.406;-4.518;2023-04-24T10:05:33;3.00;2.75;1.75
74086;PMS7003;62445;48.406;-4.518;2023-04-24T10:08:02;1.00;1.00;1.00
74086;PMS7003;62445;48.406;-4.518;2023-04-24T10:10:29;2.75;2.75;2.00
74086;PMS7003;62445;48.406;-4.518;2023-04-24T10:12:56;2.25;2.25;2.00
74086;PMS7003;62445;48.406;-4.518;2023-04-24T10:15:22;3.00;3.00;2.50
74086;PMS7003;62445;48.406;-4.518;2023-04-24T10:17:50;3.00;3.00;2.00
74086;PMS7003;62445;48.406;-4.518;2023-04-24T10:20:22;3.00;3.00;2.50
74086;PMS7003;62445;48.406;-4.518;2023-04-24T10:22:50;3.00;2.00;2.00
74086;PMS7003;62445;48.406;-4.518;2023-04-24T10:25:21;3.00;3.00;2.25
74086;PMS7003;62445;48.406;-4.518;2023-04-24T10:27:48;1.00;1.00;1.00
74086;PMS7003;62445;48.406;-4.518;2023-04-24T10:30:15;2.00;2.00;2.00
74086;PMS7003;62445;48.406;-4.518;2023-04-24T10:32:41;2.25;2.25;2.00
74086;PMS7003;62445;48.406;-4.518;2023-04-24T10:35:10;2.00;2.00;2.00
74086;PMS7003;62445;48.406;-4.518;2023-04-24T10:37:38;2.25;2.25;2.00
74086;PMS7003;62445;48.406;-4.518;2023-04-24T10:40:07;4.25;2.25;2.00
74086;PMS7003;62445;48.406;-4.518;2023-04-24T10:42:35;5.25;3.75;3.00
74086;PMS7003;62445;48.406;-4.518;2023-04-24T10:45:05;3.75;3.75;2.00
74086;PMS7003;62445;48.406;-4.518;2023-04-24T10:47:39;3.00;3.00;2.00
74086;PMS7003;62445;48.406;-4.518;2023-04-24T10:50:12;2.25;2.25;2.00
74086;PMS7003;62445;48.406;-4.518;2023-04-24T10:52:44;3.00;2.00;2.00
74086;PMS7003;62445;48.406;-4.518;2023-04-24T10:55:15;2.00;2.00;1.00
74086;PMS7003;62445;48.406;-4.518;2023-04-24T11:00:27;3.50;3.00;2.75
74086;PMS7003;62445;48.406;-4.518;2023-04-24T11:02:53;3.50;2.00;2.00
74086;PMS7003;62445;48.406;-4.518;2023-04-24T11:05:19;2.75;2.00;2.00
74086;PMS7003;62445;48.406;-4.518;2023-04-24T11:10:39;2.00;2.00;2.00
74086;PMS7003;62445;48.406;-4.518;2023-04-24T11:13:21;2.75;2.75;2.25
74086;PMS7003;62445;48.406;-4.518;2023-04-24T11:16:11;3.00;3.00;2.25
74086;PMS7003;62445;48.406;-4.518;2023-04-24T11:18:39;5.00;2.25;2.00
74086;PMS7003;62445;48.406;-4.518;2023-04-24T11:21:16;4.00;2.00;2.00
74086;PMS7003;62445;48.406;-4.518;2023-04-24T11:23:42;1.75;1.75;1.75
74086;PMS7003;62445;48.406;-4.518;2023-04-24T11:26:26;1.50;1.50;1.00
74086;PMS7003;62445;48.406;-4.518;2023-04-24T11:29:06;2.25;2.25;2.00
74086;PMS7003;62445;48.406;-4.518;2023-04-24T11:31:36;3.75;2.00;2.00
74086;PMS7003;62445;48.406;-4.518;2023-04-24T11:34:13;2.00;2.00;2.00
74086;PMS7003;62445;48.406;-4.518;2023-04-24T11:36:42;2.00;2.00;1.50
74086;PMS7003;62445;48.406;-4.518;2023-04-24T11:39:09;2.00;2.00;1.25
74086;PMS7003;62445;48.406;-4.518;2023-04-24T11:41:36;2.00;2.00;2.00
74086;PMS7003;62445;48.406;-4.518;2023-04-24T11:44:02;2.00;2.00;2.00
74086;PMS7003;62445;48.406;-4.518;2023-04-24T11:46:30;3.00;3.00;2.50
74086;PMS7003;62445;48.406;-4.518;2023-04-24T11:48:57;2.75;2.75;2.00
74086;PMS7003;62445;48.406;-4.518;2023-04-24T11:51:24;2.00;2.00;1.25
74086;PMS7003;62445;48.406;-4.518;2023-04-24T11:53:50;2.00;2.00;1.50
74086;PMS7003;62445;48.406;-4.518;2023-04-24T11:56:19;2.00;1.25;1.00
74086;PMS7003;62445;48.406;-4.518;2023-04-24T11:58:47;2.25;2.25;2.00
74086;PMS7003;62445;48.406;-4.518;2023-04-24T12:01:13;2.00;2.00;1.75
74086;PMS7003;62445;48.406;-4.518;2023-04-24T12:03:39;4.00;2.00;2.00
74086;PMS7003;62445;48.406;-4.518;2023-04-24T12:06:08;2.00;2.00;2.00
74086;PMS7003;62445;48.406;-4.518;2023-04-24T12:08:35;1.75;1.75;1.25
74086;PMS7003;62445;48.406;-4.518;2023-04-24T12:11:01;2.00;2.00;2.00
74086;PMS7003;62445;48.406;-4.518;2023-04-24T12:13:27;2.25;2.25;2.00
74086;PMS7003;62445;48.406;-4.518;2023-04-24T12:15:53;3.00;3.00;2.50
74086;PMS7003;62445;48.406;-4.518;2023-04-24T12:18:18;3.50;2.00;2.00
74086;PMS7003;62445;48.406;-4.518;2023-04-24T12:20:46;3.00;2.25;2.00
74086;PMS7003;62445;48.406;-4.518;2023-04-24T12:23:12;2.00;2.00;1.25
74086;PMS7003;62445;48.406;-4.518;2023-04-24T12:25:38;3.00;2.00;2.00
74086;PMS7003;62445;48.406;-4.518;2023-04-24T12:30:30;4.50;3.00;2.00
74086;PMS7003;62445;48.406;-4.518;2023-04-24T12:33:19;2.75;2.75;2.00
74086;PMS7003;62445;48.406;-4.518;2023-04-24T12:35:45;1.50;1.50;1.50
74086;PMS7003;62445;48.406;-4.518;2023-04-24T12:38:15;2.00;2.00;1.75
74086;PMS7003;62445;48.406;-4.518;2023-04-24T12:40:43;3.50;3.00;2.25
74086;PMS7003;62445;48.406;-4.518;2023-04-24T12:43:18;5.00;3.00;2.75
74086;PMS7003;62445;48.406;-4.518;2023-04-24T12:45:45;2.00;2.00;2.00
74086;PMS7003;62445;48.406;-4.518;2023-04-24T12:48:11;2.75;2.75;2.25
74086;PMS7003;62445;48.406;-4.518;2023-04-24T12:50:37;3.50;3.50;2.50
74086;PMS7003;62445;48.406;-4.518;2023-04-24T12:53:03;3.00;3.00;2.75
74086;PMS7003;62445;48.406;-4.518;2023-04-24T12:55:28;2.50;2.00;2.00
74086;PMS7003;62445;48.406;-4.518;2023-04-24T12:57:54;3.00;2.00;1.75
74086;PMS7003;62445;48.406;-4.518;2023-04-24T13:00:20;3.00;3.00;3.00
74086;PMS7003;62445;48.406;-4.518;2023-04-24T13:02:45;2.50;2.00;2.00
74086;PMS7003;62445;48.406;-4.518;2023-04-24T13:05:11;2.00;2.00;1.25
74086;PMS7003;62445;48.406;-4.518;2023-04-24T13:07:38;1.50;1.50;1.25
74086;PMS7003;62445;48.406;-4.518;2023-04-24T13:10:04;2.75;2.50;2.00
74086;PMS7003;62445;48.406;-4.518;2023-04-24T13:12:31;2.00;2.00;1.25
74086;PMS7003;62445;48.406;-4.518;2023-04-24T13:14:57;3.00;2.50;2.00
74086;PMS7003;62445;48.406;-4.518;2023-04-24T13:17:23;2.25;2.25;2.00
74086;PMS7003;62445;48.406;-4.518;2023-04-24T13:19:49;3.00;3.00;2.00
74086;PMS7003;62445;48.406;-4.518;2023-04-24T13:22:16;2.25;2.25;2.00
74086;PMS7003;62445;48.406;-4.518;2023-04-24T13:24:46;2.25;2.00;2.00
74086;PMS7003;62445;48.406;-4.518;2023-04-24T13:27:14;1.75;1.75;1.50
74086;PMS7003;62445;48.406;-4.518;2023-04-24T13:29:40;4.25;1.75;1.50
74086;PMS7003;62445;48.406;-4.518;2023-04-24T13:32:06;2.25;2.25;2.00
74086;PMS7003;62445;48.406;-4.518;2023-04-24T13:34:33;2.75;2.75;2.75
74086;PMS7003;62445;48.406;-4.518;2023-04-24T13:37:02;3.00;2.25;2.00
74086;PMS7003;62445;48.406;-4.518;2023-04-24T13:39:28;2.75;2.75;1.50
74086;PMS7003;62445;48.406;-4.518;2023-04-24T13:41:54;2.00;2.00;2.00
74086;PMS7003;62445;48.406;-4.518;2023-04-24T13:44:21;2.00;2.00;2.00
74086;PMS7003;62445;48.406;-4.518;2023-04-24T13:46:48;4.00;3.50;2.50
74086;PMS7003;62445;48.406;-4.518;2023-04-24T13:49:15;2.00;2.00;2.00
74086;PMS7003;62445;48.406;-4.518;2023-04-24T13:51:41;3.25;3.00;2.00
74086;PMS7003;62445;48.406;-4.518;2023-04-24T13:54:08;2.00;2.00;2.00
74086;PMS7003;62445;48.406;-4.518;2023-04-24T13:56:33;3.00;2.00;1.50
74086;PMS7003;62445;48.406;-4.518;2023-04-24T13:58:59;2.00;2.00;1.00
74086;PMS7003;62445;48.406;-4.518;2023-04-24T14:01:24;1.50;1.50;1.00
74086;PMS7003;62445;48.406;-4.518;2023-04-24T14:03:53;2.00;2.00;2.00
74086;PMS7003;62445;48.406;-4.518;2023-04-24T14:06:20;4.75;3.00;2.50
74086;PMS7003;62445;48.406;-4.518;2023-04-24T14:08:46;2.00;1.00;1.00
74086;PMS7003;62445;48.406;-4.518;2023-04-24T14:11:12;3.00;3.00;2.00
74086;PMS7003;62445;48.406;-4.518;2023-04-24T14:13:37;3.00;3.00;2.00
74086;PMS7003;62445;48.406;-4.518;2023-04-24T14:16:04;2.00;1.50;1.25